Wilson Lahn — 8PUO — position and weather

sailwx.info

Track history (hours):
 
Tides and Currents Weather Stations Pressure Air Temp Water Temp Dewpoint Dewpoint Depression Visibility Wind Speed Wind Dir Waves Ship Positions

Wilson Lahn

Last reported at 2015-Mar-01 08:23 UTC. Time now 2015-Mar-01 11:02 UTC.
Position N 58°23' E 005°25'.

Length 83 m; draft 4.8 m.

Type: Cargo ship. MMSI: 314259000.

Date/timePositionNaut miles runAvg speedWind from/ knotsBaromVisibWave heightAir tempDewpointWater temp
2015-Mar-01 08:23N 58°23' E 005°25'6 4.8
2015-Mar-01 07:08N 58°29' E 005°25'15 4.1
2015-Mar-01 03:32N 58°44' E 005°25'4 4.3
2015-Mar-01 02:30N 58°48' E 005°27'7 7.7
2015-Mar-01 01:33N 58°55' E 005°32'9 9.1
2015-Mar-01 00:33N 59°04' E 005°32'9 8.8
2015-Feb-28 23:33N 59°10' E 005°20'11 9.0
2015-Feb-28 22:19N 59°22' E 005°18'8 9.7
2015-Feb-28 21:29N 59°29' E 005°13'225 5.1
2015-Feb-27 01:32N 63°08' E 007°02'10 7.7
2015-Feb-27 00:13N 63°14' E 007°21'8 7.4
2015-Feb-26 23:08N 63°16' E 007°38'8 7.9
2015-Feb-26 22:04N 63°14' E 007°57'27 9.0
2015-Feb-26 19:04N 63°27' E 008°49'  
2015-Feb-21 06:33N 63°11' E 007°13'246 8.4
2015-Feb-20 01:21N 59°14' E 005°00'7 9.5
2015-Feb-20 00:33N 59°08' E 005°09'9 8.5
2015-Feb-19 23:33N 59°07' E 005°25'8 7.5
2015-Feb-19 22:33N 59°00' E 005°33'5 4.5
2015-Feb-19 21:32N 58°56' E 005°35'0 0.0
2015-Feb-19 20:22N 58°56' E 005°35'0 0.0
2015-Feb-19 19:31N 58°56' E 005°35'0 0.0
2015-Feb-19 18:25N 58°56' E 005°35'0 0.0
2015-Feb-19 17:25N 58°56' E 005°35'0 0.0
2015-Feb-19 16:25N 58°56' E 005°35'0 0.0
2015-Feb-19 15:33N 58°56' E 005°35'0 0.0
2015-Feb-19 14:33N 58°56' E 005°35'0 0.0
2015-Feb-19 13:33N 58°56' E 005°35'0 0.0
2015-Feb-19 12:33N 58°56' E 005°35'1 0.9
2015-Feb-19 11:33N 58°56' E 005°34'6 6.2
2015-Feb-19 10:33N 59°01' E 005°40'8 8.3
2015-Feb-19 09:34N 58°53' E 005°45'2 2.0
2015-Feb-19 08:31N 58°51' E 005°45'  
Track history (hours):
 
Tides and Currents Weather Stations Pressure Air Temp Water Temp Dewpoint Dewpoint Depression Visibility Wind Speed Wind Dir Waves Ship Positions

Wilson Lahn

Last reported at 2015-Mar-01 08:23 UTC. Time now 2015-Mar-01 11:02 UTC.
Position N 58°23' E 005°25'.

Length 83 m; draft 4.8 m.

Type: Cargo ship. MMSI: 314259000.

Date/timePositionNaut miles runAvg speedWind from/ knotsBaromVisibWave heightAir tempDewpointWater temp
2015-Mar-01 08:23N 58°23' E 005°25'6 4.8
2015-Mar-01 07:08N 58°29' E 005°25'15 4.1
2015-Mar-01 03:32N 58°44' E 005°25'4 4.3
2015-Mar-01 02:30N 58°48' E 005°27'7 7.7
2015-Mar-01 01:33N 58°55' E 005°32'9 9.1
2015-Mar-01 00:33N 59°04' E 005°32'9 8.8
2015-Feb-28 23:33N 59°10' E 005°20'11 9.0
2015-Feb-28 22:19N 59°22' E 005°18'8 9.7
2015-Feb-28 21:29N 59°29' E 005°13'225 5.1
2015-Feb-27 01:32N 63°08' E 007°02'10 7.7
2015-Feb-27 00:13N 63°14' E 007°21'8 7.4
2015-Feb-26 23:08N 63°16' E 007°38'8 7.9
2015-Feb-26 22:04N 63°14' E 007°57'27 9.0
2015-Feb-26 19:04N 63°27' E 008°49'  
2015-Feb-21 06:33N 63°11' E 007°13'246 8.4
2015-Feb-20 01:21N 59°14' E 005°00'7 9.5
2015-Feb-20 00:33N 59°08' E 005°09'9 8.5
2015-Feb-19 23:33N 59°07' E 005°25'8 7.5
2015-Feb-19 22:33N 59°00' E 005°33'5 4.5
2015-Feb-19 21:32N 58°56' E 005°35'0 0.0
2015-Feb-19 20:22N 58°56' E 005°35'0 0.0
2015-Feb-19 19:31N 58°56' E 005°35'0 0.0
2015-Feb-19 18:25N 58°56' E 005°35'0 0.0
2015-Feb-19 17:25N 58°56' E 005°35'0 0.0
2015-Feb-19 16:25N 58°56' E 005°35'0 0.0
2015-Feb-19 15:33N 58°56' E 005°35'0 0.0
2015-Feb-19 14:33N 58°56' E 005°35'0 0.0
2015-Feb-19 13:33N 58°56' E 005°35'0 0.0
2015-Feb-19 12:33N 58°56' E 005°35'1 0.9
2015-Feb-19 11:33N 58°56' E 005°34'6 6.2
2015-Feb-19 10:33N 59°01' E 005°40'8 8.3
2015-Feb-19 09:34N 58°53' E 005°45'2 2.0
2015-Feb-19 08:31N 58°51' E 005°45'  

Dump ship's entire track history